createdAt,value
2022-09-30T00:00:03.123Z,969.55
2022-09-30T00:01:03.154Z,969.72
2022-09-30T00:02:03.280Z,969.66
2022-09-30T00:03:03.097Z,969.69
2022-09-30T00:04:02.945Z,969.80
2022-09-30T00:05:02.945Z,969.66
2022-09-30T00:06:08.905Z,969.78
2022-09-30T00:07:03.572Z,969.80
2022-09-30T00:08:03.591Z,969.78
2022-09-30T00:09:03.759Z,969.86
2022-09-30T00:10:03.895Z,969.86
2022-09-30T00:11:02.932Z,969.83
2022-09-30T00:12:02.946Z,969.75
2022-09-30T00:13:03.016Z,969.72
2022-09-30T00:14:02.950Z,969.80
2022-09-30T00:15:03.050Z,969.96
2022-09-30T00:16:03.261Z,969.92
2022-09-30T00:17:03.160Z,969.86
2022-09-30T00:18:03.180Z,969.96
2022-09-30T00:19:03.178Z,969.99
2022-09-30T00:20:03.143Z,969.96
2022-09-30T00:21:03.104Z,969.91
2022-09-30T00:22:03.154Z,969.91
2022-09-30T00:23:03.147Z,969.96
2022-09-30T00:24:03.127Z,969.96
2022-09-30T00:25:03.028Z,969.83
2022-09-30T00:26:03.053Z,969.96
2022-09-30T00:27:02.989Z,969.86
2022-09-30T00:28:03.038Z,969.83
2022-09-30T00:29:03.021Z,969.96
2022-09-30T00:30:02.909Z,969.91
2022-09-30T00:31:03.096Z,969.69
2022-09-30T00:32:02.979Z,969.91
2022-09-30T00:33:02.888Z,969.80
2022-09-30T00:34:02.954Z,969.83
2022-09-30T00:35:03.026Z,969.86
2022-09-30T00:36:03.149Z,969.83
2022-09-30T00:37:03.151Z,970.07
2022-09-30T00:38:03.177Z,969.91
2022-09-30T00:39:03.182Z,969.88
2022-09-30T00:40:03.200Z,969.80
2022-09-30T00:41:03.352Z,969.91
2022-09-30T00:42:03.753Z,969.88
2022-09-30T00:43:03.802Z,969.91
2022-09-30T00:44:03.782Z,969.91
2022-09-30T00:45:03.708Z,969.99
2022-09-30T00:46:03.744Z,969.96
2022-09-30T00:47:03.894Z,969.88
2022-09-30T00:48:03.831Z,969.88
2022-09-30T00:49:03.764Z,970.02
2022-09-30T00:50:03.866Z,969.91
2022-09-30T00:51:03.769Z,969.80
2022-09-30T00:52:02.973Z,970.02
2022-09-30T00:53:03.054Z,970.04
2022-09-30T00:54:03.000Z,969.91
2022-09-30T00:55:02.905Z,969.99
2022-09-30T00:56:03.696Z,969.85
2022-09-30T00:57:03.658Z,970.02
2022-09-30T00:58:03.599Z,969.91
2022-09-30T00:59:03.579Z,969.85
2022-09-30T01:00:03.535Z,969.85
2022-09-30T01:01:03.580Z,969.83
2022-09-30T01:02:03.687Z,969.88
2022-09-30T01:03:03.719Z,969.83
2022-09-30T01:04:03.861Z,969.83
2022-09-30T01:05:03.803Z,969.91
2022-09-30T01:06:03.885Z,969.96
2022-09-30T01:07:03.881Z,969.96
2022-09-30T01:08:03.819Z,970.05
2022-09-30T01:09:03.938Z,969.96
2022-09-30T01:10:03.785Z,969.91
2022-09-30T01:11:08.576Z,969.91
2022-09-30T01:12:02.938Z,970.07
2022-09-30T01:13:03.052Z,969.96
2022-09-30T01:14:03.019Z,969.96
2022-09-30T01:15:02.943Z,970.10
2022-09-30T01:16:03.973Z,969.99
2022-09-30T01:17:03.897Z,970.05
2022-09-30T01:18:02.982Z,970.07
2022-09-30T01:19:02.912Z,970.07
2022-09-30T01:20:02.977Z,970.07
2022-09-30T01:21:03.449Z,970.02
2022-09-30T01:22:03.498Z,970.07
2022-09-30T01:23:03.418Z,970.10
2022-09-30T01:24:03.473Z,970.19
2022-09-30T01:25:03.412Z,970.07
2022-09-30T01:26:03.367Z,970.02
2022-09-30T01:27:03.224Z,970.13
2022-09-30T01:28:03.286Z,970.08
2022-09-30T01:29:03.582Z,970.16
2022-09-30T01:30:03.350Z,970.08
2022-09-30T01:31:03.450Z,970.13
2022-09-30T01:32:03.334Z,969.99
2022-09-30T01:33:03.419Z,970.22
2022-09-30T01:34:03.399Z,970.02
2022-09-30T01:35:03.321Z,970.05
2022-09-30T01:36:03.423Z,970.02
2022-09-30T01:37:03.527Z,970.08
2022-09-30T01:38:03.484Z,970.14
2022-09-30T01:39:03.536Z,970.19
2022-09-30T01:40:03.512Z,970.20
2022-09-30T01:41:03.532Z,970.11
2022-09-30T01:42:03.514Z,970.06
2022-09-30T01:43:03.508Z,970.03
2022-09-30T01:44:03.569Z,970.17
2022-09-30T01:45:03.607Z,970.23
2022-09-30T01:46:03.579Z,970.20
2022-09-30T01:47:03.542Z,970.14
2022-09-30T01:48:03.644Z,970.26
2022-09-30T01:49:03.772Z,970.09
2022-09-30T01:50:03.664Z,970.20
2022-09-30T01:51:03.753Z,970.29
2022-09-30T01:52:03.702Z,970.23
2022-09-30T01:53:03.782Z,970.29
2022-09-30T01:54:03.793Z,970.32
2022-09-30T01:55:03.749Z,970.32
2022-09-30T01:56:03.826Z,970.26
2022-09-30T01:57:03.774Z,970.37
2022-09-30T01:58:03.650Z,970.29
2022-09-30T01:59:03.619Z,970.37
2022-09-30T02:00:03.819Z,970.37
2022-09-30T02:01:03.948Z,970.45
2022-09-30T02:02:04.005Z,970.48
2022-09-30T02:03:03.841Z,970.53
2022-09-30T02:04:02.918Z,970.45
2022-09-30T02:05:03.056Z,970.35
2022-09-30T02:06:02.985Z,970.48
2022-09-30T02:07:02.931Z,970.45
2022-09-30T02:08:02.895Z,970.45
2022-09-30T02:09:03.161Z,970.41
2022-09-30T02:10:03.001Z,970.45
2022-09-30T02:11:02.998Z,970.38
2022-09-30T02:12:03.535Z,970.45
2022-09-30T02:13:03.396Z,970.54
2022-09-30T02:14:03.505Z,970.57
2022-09-30T02:15:03.490Z,970.45
2022-09-30T02:16:03.545Z,970.41
2022-09-30T02:17:03.550Z,970.38
2022-09-30T02:18:03.570Z,970.41
2022-09-30T02:19:03.628Z,970.51
2022-09-30T02:20:03.870Z,970.43
2022-09-30T02:21:03.761Z,970.43
2022-09-30T02:22:03.825Z,970.41
2022-09-30T02:23:02.957Z,970.46
2022-09-30T02:24:02.949Z,970.46
2022-09-30T02:25:03.029Z,970.41
2022-09-30T02:26:02.994Z,970.46
2022-09-30T02:27:03.035Z,970.27
2022-09-30T02:28:03.018Z,970.27
2022-09-30T02:29:03.069Z,970.39
2022-09-30T02:30:03.572Z,970.39
2022-09-30T02:31:03.773Z,970.36
2022-09-30T02:32:03.688Z,970.36
2022-09-30T02:33:03.818Z,970.44
2022-09-30T02:34:03.074Z,970.42
2022-09-30T02:35:03.102Z,970.47
2022-09-30T02:36:03.114Z,970.55
2022-09-30T02:37:03.138Z,970.44
2022-09-30T02:38:03.071Z,970.39
2022-09-30T02:39:03.188Z,970.53
2022-09-30T02:40:03.820Z,970.44
2022-09-30T02:41:03.784Z,970.44
2022-09-30T02:42:03.821Z,970.42
2022-09-30T02:43:03.800Z,970.50
2022-09-30T02:44:03.787Z,970.56
2022-09-30T02:45:03.939Z,970.40
2022-09-30T02:46:02.950Z,970.45
2022-09-30T02:47:03.074Z,970.48
2022-09-30T02:48:03.074Z,970.37
2022-09-30T02:49:02.975Z,970.32
2022-09-30T02:50:03.243Z,970.35
2022-09-30T02:51:03.236Z,970.48
2022-09-30T02:52:03.346Z,970.51
2022-09-30T02:53:03.323Z,970.62
2022-09-30T02:54:03.326Z,970.60
2022-09-30T02:55:03.337Z,970.65
2022-09-30T02:56:03.278Z,970.66
2022-09-30T02:57:03.285Z,970.63
2022-09-30T02:58:03.317Z,970.66
2022-09-30T02:59:03.405Z,970.52
2022-09-30T03:00:07.865Z,970.60
2022-09-30T03:01:03.801Z,970.60
2022-09-30T03:02:03.743Z,970.63
2022-09-30T03:03:03.781Z,970.69
2022-09-30T03:04:03.824Z,970.61
2022-09-30T03:05:03.850Z,970.58
2022-09-30T03:06:03.922Z,970.49
2022-09-30T03:07:03.903Z,970.55
2022-09-30T03:08:02.878Z,970.58
2022-09-30T03:09:03.073Z,970.64
2022-09-30T03:10:03.397Z,970.64
2022-09-30T03:11:03.400Z,970.61
2022-09-30T03:12:03.484Z,970.70
2022-09-30T03:13:03.483Z,970.76
2022-09-30T03:14:03.561Z,970.67
2022-09-30T03:15:03.670Z,970.79
2022-09-30T03:16:03.864Z,970.87
2022-09-30T03:17:03.869Z,970.82
2022-09-30T03:18:03.791Z,970.90
2022-09-30T03:19:03.894Z,970.87
2022-09-30T03:20:02.920Z,970.76
2022-09-30T03:21:02.987Z,970.91
2022-09-30T03:22:03.568Z,970.91
2022-09-30T03:23:03.692Z,970.79
2022-09-30T03:24:03.672Z,970.85
2022-09-30T03:25:03.718Z,970.88
2022-09-30T03:26:03.725Z,970.80
2022-09-30T03:27:03.897Z,970.80
2022-09-30T03:28:03.832Z,970.99
2022-09-30T03:29:03.864Z,970.91
2022-09-30T03:30:02.983Z,970.91
2022-09-30T03:31:03.149Z,970.82
2022-09-30T03:32:03.007Z,970.77
2022-09-30T03:33:03.076Z,970.94
2022-09-30T03:34:03.139Z,970.97
2022-09-30T03:35:03.132Z,970.99
2022-09-30T03:36:03.200Z,970.80
2022-09-30T03:37:04.811Z,970.91
2022-09-30T03:38:03.297Z,970.91
2022-09-30T03:39:03.547Z,970.88
2022-09-30T03:40:03.532Z,970.91
2022-09-30T03:41:03.632Z,970.88
2022-09-30T03:42:03.710Z,970.80
2022-09-30T03:43:03.696Z,970.82
2022-09-30T03:44:03.679Z,970.77
2022-09-30T03:45:03.722Z,970.88
2022-09-30T03:46:03.754Z,970.91
2022-09-30T03:47:03.187Z,970.91
2022-09-30T03:48:02.957Z,970.85
2022-09-30T03:49:02.953Z,970.91
2022-09-30T03:50:02.964Z,970.82
2022-09-30T03:51:03.026Z,971.02
2022-09-30T03:52:03.151Z,970.96
2022-09-30T03:53:03.242Z,970.85
2022-09-30T03:54:03.385Z,970.88
2022-09-30T03:55:03.548Z,970.96
2022-09-30T03:56:03.545Z,970.96
2022-09-30T03:57:03.515Z,971.02
2022-09-30T03:58:03.584Z,971.02
2022-09-30T03:59:03.567Z,971.05
2022-09-30T04:00:03.718Z,970.99
2022-09-30T04:01:03.796Z,970.96
2022-09-30T04:02:03.802Z,970.99
2022-09-30T04:03:03.717Z,970.93
2022-09-30T04:04:03.738Z,970.93
2022-09-30T04:05:03.669Z,970.96
2022-09-30T04:06:03.735Z,971.05
2022-09-30T04:07:03.925Z,970.96
2022-09-30T04:08:03.809Z,970.91
2022-09-30T04:09:03.950Z,971.05
2022-09-30T04:10:03.844Z,970.82
2022-09-30T04:11:03.918Z,970.96
2022-09-30T04:12:03.882Z,971.05
2022-09-30T04:13:02.944Z,970.88
2022-09-30T04:14:02.905Z,971.02
2022-09-30T04:15:03.024Z,970.94
2022-09-30T04:16:03.130Z,970.88
2022-09-30T04:17:03.042Z,971.02
2022-09-30T04:18:02.990Z,970.97
2022-09-30T04:19:03.202Z,970.94
2022-09-30T04:20:02.956Z,971.05
2022-09-30T04:21:03.078Z,971.11
2022-09-30T04:22:03.164Z,970.91
2022-09-30T04:23:03.149Z,971.11
2022-09-30T04:24:03.279Z,971.20
2022-09-30T04:25:03.565Z,971.11
2022-09-30T04:26:03.403Z,971.22
2022-09-30T04:27:03.441Z,971.14
2022-09-30T04:28:03.500Z,971.17
2022-09-30T04:29:03.449Z,971.25
2022-09-30T04:30:03.463Z,971.31
2022-09-30T04:31:03.730Z,971.14
2022-09-30T04:32:03.490Z,971.17
2022-09-30T04:33:03.490Z,971.20
2022-09-30T04:34:03.612Z,971.20
2022-09-30T04:35:03.541Z,971.20
2022-09-30T04:36:03.564Z,971.14
2022-09-30T04:37:11.174Z,971.31
2022-09-30T04:38:03.714Z,971.20
2022-09-30T04:39:03.882Z,971.09
2022-09-30T04:40:02.962Z,971.26
2022-09-30T04:41:02.967Z,971.20
2022-09-30T04:42:03.114Z,971.17
2022-09-30T04:43:03.071Z,971.12
2022-09-30T04:44:03.065Z,971.09
2022-09-30T04:45:03.145Z,971.12
2022-09-30T04:46:03.379Z,971.26
2022-09-30T04:47:03.155Z,971.09
2022-09-30T04:48:03.145Z,971.23
2022-09-30T04:49:09.432Z,971.23
2022-09-30T04:50:03.315Z,971.26
2022-09-30T04:51:03.318Z,971.26
2022-09-30T04:52:03.395Z,971.29
2022-09-30T04:53:03.324Z,971.27
2022-09-30T04:54:03.457Z,971.44
2022-09-30T04:55:03.550Z,971.27
2022-09-30T04:56:03.507Z,971.35
2022-09-30T04:57:03.241Z,971.32
2022-09-30T04:58:03.179Z,971.27
2022-09-30T04:59:03.329Z,971.27
2022-09-30T05:00:03.234Z,971.38
2022-09-30T05:01:03.463Z,971.47
2022-09-30T05:02:03.436Z,971.53
2022-09-30T05:03:03.310Z,971.44
2022-09-30T05:04:03.360Z,971.33
2022-09-30T05:05:03.021Z,971.53
2022-09-30T05:06:03.000Z,971.44
2022-09-30T05:07:02.984Z,971.45
2022-09-30T05:08:03.038Z,971.47
2022-09-30T05:09:03.104Z,971.42
2022-09-30T05:10:03.050Z,971.45
2022-09-30T05:11:02.992Z,971.53
2022-09-30T05:12:02.972Z,971.48
2022-09-30T05:13:03.080Z,971.56
2022-09-30T05:14:03.122Z,971.42
2022-09-30T05:15:03.077Z,971.59
2022-09-30T05:16:03.291Z,971.54
2022-09-30T05:17:03.082Z,971.54
2022-09-30T05:18:03.123Z,971.62
2022-09-30T05:19:03.648Z,971.65
2022-09-30T05:20:03.680Z,971.57
2022-09-30T05:21:03.637Z,971.54
2022-09-30T05:22:03.567Z,971.57
2022-09-30T05:23:03.536Z,971.51
2022-09-30T05:24:03.602Z,971.51
2022-09-30T05:25:03.807Z,971.43
2022-09-30T05:26:05.056Z,971.57
2022-09-30T05:27:03.003Z,971.51
2022-09-30T05:28:02.964Z,971.59
2022-09-30T05:29:03.869Z,971.59
2022-09-30T05:30:02.970Z,971.65
2022-09-30T05:31:03.283Z,971.62
2022-09-30T05:32:03.000Z,971.54
2022-09-30T05:33:02.891Z,971.48
2022-09-30T05:34:03.005Z,971.59
2022-09-30T05:35:03.035Z,971.54
2022-09-30T05:36:03.148Z,971.71
2022-09-30T05:37:03.028Z,971.65
2022-09-30T05:38:03.042Z,971.54
2022-09-30T05:39:03.076Z,971.59
2022-09-30T05:40:02.993Z,971.57
2022-09-30T05:41:03.110Z,971.62
2022-09-30T05:42:03.188Z,971.77
2022-09-30T05:43:03.276Z,971.65
2022-09-30T05:44:03.279Z,971.65
2022-09-30T05:45:03.263Z,971.68
2022-09-30T05:46:03.172Z,971.60
2022-09-30T05:47:03.269Z,971.68
2022-09-30T05:48:03.102Z,971.54
2022-09-30T05:49:03.160Z,971.62
2022-09-30T05:50:03.134Z,971.60
2022-09-30T05:51:03.143Z,971.65
2022-09-30T05:52:03.675Z,971.74
2022-09-30T05:53:03.779Z,971.68
2022-09-30T05:54:03.726Z,971.92
2022-09-30T05:55:03.810Z,971.71
2022-09-30T05:56:03.805Z,971.79
2022-09-30T05:57:03.885Z,971.82
2022-09-30T05:58:03.900Z,971.92
2022-09-30T05:59:03.872Z,971.82
2022-09-30T06:00:03.108Z,971.92
2022-09-30T06:01:13.673Z,972.01
2022-09-30T06:02:03.181Z,971.79
2022-09-30T06:03:03.260Z,971.92
2022-09-30T06:04:03.602Z,971.82
2022-09-30T06:05:03.633Z,971.84
2022-09-30T06:06:03.484Z,971.84
2022-09-30T06:07:10.565Z,972.00
2022-09-30T06:08:03.491Z,971.79
2022-09-30T06:09:03.541Z,971.98
2022-09-30T06:10:03.558Z,971.98
2022-09-30T06:11:03.573Z,971.86
2022-09-30T06:12:03.558Z,972.03
2022-09-30T06:13:03.677Z,971.98
2022-09-30T06:14:03.702Z,971.98
2022-09-30T06:15:03.665Z,972.00
2022-09-30T06:16:03.685Z,972.09
2022-09-30T06:17:03.588Z,971.95
2022-09-30T06:18:03.568Z,972.12
2022-09-30T06:19:03.598Z,972.17
2022-09-30T06:20:03.702Z,972.09
2022-09-30T06:21:03.586Z,972.15
2022-09-30T06:22:03.670Z,972.09
2022-09-30T06:23:03.799Z,972.09
2022-09-30T06:24:03.831Z,972.26
2022-09-30T06:25:03.696Z,972.12
2022-09-30T06:26:03.773Z,972.04
2022-09-30T06:27:03.866Z,972.26
2022-09-30T06:28:03.871Z,972.09
2022-09-30T06:29:03.929Z,972.26
2022-09-30T06:30:03.778Z,972.20
2022-09-30T06:31:02.943Z,972.09
2022-09-30T06:32:03.123Z,972.06
2022-09-30T06:33:03.045Z,972.06
2022-09-30T06:34:03.015Z,971.97
2022-09-30T06:35:03.009Z,972.17
2022-09-30T06:36:02.963Z,972.05
2022-09-30T06:37:02.974Z,972.08
2022-09-30T06:38:03.003Z,971.97
2022-09-30T06:39:03.056Z,972.05
2022-09-30T06:40:03.856Z,971.99
2022-09-30T06:41:03.017Z,972.08
2022-09-30T06:42:03.919Z,971.99
2022-09-30T06:43:03.809Z,972.13
2022-09-30T06:44:03.874Z,972.04
2022-09-30T06:45:03.837Z,971.96
2022-09-30T06:46:20.457Z,972.27
2022-09-30T06:47:06.081Z,972.21
2022-09-30T06:48:03.946Z,972.21
2022-09-30T06:49:21.910Z,972.09
2022-09-30T06:50:03.641Z,972.18
2022-09-30T06:51:03.643Z,972.18
2022-09-30T06:52:03.607Z,972.18
2022-09-30T06:53:03.696Z,972.29
2022-09-30T06:54:03.797Z,972.29
2022-09-30T06:55:03.744Z,972.40
2022-09-30T06:56:03.705Z,972.20
2022-09-30T06:57:03.655Z,972.25
2022-09-30T06:58:03.792Z,972.22
2022-09-30T06:59:03.868Z,972.38
2022-09-30T07:00:03.937Z,972.12
2022-09-30T07:01:03.066Z,972.23
2022-09-30T07:02:03.071Z,972.31
2022-09-30T07:03:03.035Z,972.25
2022-09-30T07:04:03.005Z,972.39
2022-09-30T07:05:03.154Z,972.39
2022-09-30T07:06:03.191Z,972.33
2022-09-30T07:07:03.211Z,972.32
2022-09-30T07:08:03.210Z,972.46
2022-09-30T07:09:03.307Z,972.54
2022-09-30T07:10:03.226Z,972.54
2022-09-30T07:11:03.173Z,972.56
2022-09-30T07:12:03.598Z,972.53
2022-09-30T07:13:03.867Z,972.43
2022-09-30T07:14:03.771Z,972.43
2022-09-30T07:15:03.918Z,972.62
2022-09-30T07:16:03.932Z,972.59
2022-09-30T07:17:03.844Z,972.40
2022-09-30T07:18:02.969Z,972.70
2022-09-30T07:19:02.920Z,972.64
2022-09-30T07:20:03.333Z,972.61
2022-09-30T07:21:03.825Z,972.45
2022-09-30T07:22:02.904Z,972.70
2022-09-30T07:23:02.989Z,972.70
2022-09-30T07:24:03.007Z,972.64
2022-09-30T07:25:02.962Z,972.69
2022-09-30T07:26:03.050Z,972.77
2022-09-30T07:27:03.069Z,972.77
2022-09-30T07:28:03.009Z,972.66
2022-09-30T07:29:02.993Z,972.74
2022-09-30T07:30:22.939Z,972.66
2022-09-30T07:31:33.904Z,972.80
2022-09-30T07:32:03.371Z,972.80
2022-09-30T07:33:03.187Z,972.85
2022-09-30T07:34:03.137Z,972.88
2022-09-30T07:35:03.086Z,972.79
2022-09-30T07:36:03.032Z,972.82
2022-09-30T07:37:03.053Z,972.87
2022-09-30T07:38:02.903Z,972.84
2022-09-30T07:39:03.539Z,972.87
2022-09-30T07:40:03.617Z,972.84
2022-09-30T07:41:03.626Z,972.89
2022-09-30T07:42:03.590Z,972.81
2022-09-30T07:43:03.734Z,972.92
2022-09-30T07:44:03.748Z,972.97
2022-09-30T07:45:03.773Z,972.97
2022-09-30T07:46:03.985Z,972.97
2022-09-30T07:47:03.906Z,973.02
2022-09-30T07:48:02.881Z,973.14
2022-09-30T07:49:03.011Z,973.13
2022-09-30T07:50:03.914Z,973.19
2022-09-30T07:51:02.953Z,973.10
2022-09-30T07:52:03.942Z,973.10
2022-09-30T07:53:03.887Z,973.07
2022-09-30T07:54:03.903Z,973.15
2022-09-30T07:55:03.842Z,973.12
2022-09-30T07:56:03.862Z,973.09
2022-09-30T07:57:11.626Z,973.18
2022-09-30T07:58:03.017Z,973.17
2022-09-30T07:59:03.617Z,973.26
2022-09-30T08:00:41.442Z,973.28
2022-09-30T08:01:03.740Z,973.25
2022-09-30T08:02:03.771Z,973.25
2022-09-30T08:03:03.756Z,973.28
2022-09-30T08:04:03.721Z,973.30
2022-09-30T08:05:03.699Z,973.30
2022-09-30T08:06:03.750Z,973.35
2022-09-30T08:07:03.671Z,973.26
2022-09-30T08:08:03.777Z,973.26
2022-09-30T08:09:03.921Z,973.29
2022-09-30T08:10:03.847Z,973.31
2022-09-30T08:11:03.007Z,973.40
2022-09-30T08:12:02.962Z,973.39
2022-09-30T08:13:06.608Z,973.42
2022-09-30T08:14:03.391Z,973.44
2022-09-30T08:15:03.224Z,973.38
2022-09-30T08:16:03.359Z,973.35
2022-09-30T08:17:03.374Z,973.38
2022-09-30T08:18:03.367Z,973.37
2022-09-30T08:19:03.798Z,973.43
2022-09-30T08:20:03.820Z,973.42
2022-09-30T08:21:03.932Z,973.39
2022-09-30T08:22:03.911Z,973.33
2022-09-30T08:23:03.860Z,973.53
2022-09-30T08:24:03.889Z,973.50
2022-09-30T08:25:03.834Z,973.44
2022-09-30T08:26:02.934Z,973.44
2022-09-30T08:27:04.024Z,973.52
2022-09-30T08:28:02.954Z,973.59
2022-09-30T08:29:02.929Z,973.54
2022-09-30T08:30:05.349Z,973.59
2022-09-30T08:31:02.986Z,973.64
2022-09-30T08:32:03.137Z,973.58
2022-09-30T08:33:02.914Z,973.53
2022-09-30T08:34:02.928Z,973.50
2022-09-30T08:35:03.952Z,973.69
2022-09-30T08:36:02.925Z,973.55
2022-09-30T08:37:09.627Z,973.66
2022-09-30T08:38:03.951Z,973.77
2022-09-30T08:39:03.908Z,973.77
2022-09-30T08:40:03.815Z,973.68
2022-09-30T08:41:03.710Z,973.76
2022-09-30T08:42:35.914Z,973.76
2022-09-30T08:43:03.900Z,973.73
2022-09-30T08:44:02.884Z,973.67
2022-09-30T08:45:02.915Z,973.72
2022-09-30T08:46:03.985Z,973.83
2022-09-30T08:47:03.938Z,973.72
2022-09-30T08:48:03.052Z,973.83
2022-09-30T08:49:04.014Z,973.91
2022-09-30T08:50:02.900Z,973.82
2022-09-30T08:51:02.975Z,973.90
2022-09-30T08:52:03.057Z,973.76
2022-09-30T08:53:02.943Z,973.84
2022-09-30T08:54:02.942Z,973.78
2022-09-30T08:55:03.063Z,973.83
2022-09-30T08:56:03.306Z,973.77
2022-09-30T08:57:03.078Z,973.80
2022-09-30T08:58:03.207Z,973.86
2022-09-30T08:59:03.182Z,973.97
2022-09-30T09:00:03.101Z,973.82
2022-09-30T09:01:03.189Z,973.85
2022-09-30T09:02:03.386Z,973.85
2022-09-30T09:03:03.059Z,973.93
2022-09-30T09:04:03.047Z,973.93
2022-09-30T09:05:03.005Z,974.07
2022-09-30T09:06:03.880Z,974.07
2022-09-30T09:07:03.066Z,974.01
2022-09-30T09:08:03.907Z,973.95
2022-09-30T09:09:02.938Z,973.92
2022-09-30T09:10:03.093Z,973.89
2022-09-30T09:11:03.276Z,974.03
2022-09-30T09:12:03.149Z,974.00
2022-09-30T09:13:03.123Z,974.11
2022-09-30T09:14:03.165Z,974.05
2022-09-30T09:15:03.269Z,974.13
2022-09-30T09:16:03.346Z,974.16
2022-09-30T09:17:03.473Z,974.16
2022-09-30T09:18:24.249Z,974.19
2022-09-30T09:19:03.191Z,974.19
2022-09-30T09:20:03.173Z,974.24
2022-09-30T09:21:03.147Z,974.27
2022-09-30T09:22:02.988Z,974.30
2022-09-30T09:23:03.135Z,974.21
2022-09-30T09:24:03.257Z,974.29
2022-09-30T09:25:03.223Z,974.21
2022-09-30T09:26:03.163Z,974.32
2022-09-30T09:27:03.278Z,974.26
2022-09-30T09:28:03.429Z,974.43
2022-09-30T09:29:03.208Z,974.31
2022-09-30T09:30:03.168Z,974.25
2022-09-30T09:31:03.118Z,974.16
2022-09-30T09:32:03.324Z,974.31
2022-09-30T09:33:03.034Z,974.39
2022-09-30T09:34:03.114Z,974.21
2022-09-30T09:35:03.192Z,974.27
2022-09-30T09:36:03.043Z,974.18
2022-09-30T09:37:03.105Z,974.21
2022-09-30T09:38:03.195Z,974.24
2022-09-30T09:39:03.131Z,974.26
2022-09-30T09:40:04.833Z,974.23
2022-09-30T09:41:03.099Z,974.15
2022-09-30T09:42:03.043Z,974.17
2022-09-30T09:43:03.020Z,974.14
2022-09-30T09:44:02.995Z,974.23
2022-09-30T09:45:02.891Z,974.23
2022-09-30T09:46:03.042Z,974.20
2022-09-30T09:47:02.917Z,974.23
2022-09-30T09:48:03.121Z,974.22
2022-09-30T09:49:03.200Z,974.22
2022-09-30T09:50:02.998Z,974.30
2022-09-30T09:51:03.180Z,974.30
2022-09-30T09:52:03.164Z,974.24
2022-09-30T09:53:03.111Z,974.33
2022-09-30T09:54:03.092Z,974.29
2022-09-30T09:55:03.084Z,974.41
2022-09-30T09:56:03.088Z,974.41
2022-09-30T09:57:03.143Z,974.37
2022-09-30T09:58:03.112Z,974.34
2022-09-30T09:59:03.116Z,974.37
2022-09-30T10:00:03.246Z,974.31
2022-09-30T10:01:09.069Z,974.25
2022-09-30T10:02:03.125Z,974.30
2022-09-30T10:03:03.122Z,974.36
2022-09-30T10:04:03.168Z,974.41
2022-09-30T10:05:02.964Z,974.53
2022-09-30T10:06:02.936Z,974.50
2022-09-30T10:07:03.861Z,974.53
2022-09-30T10:08:03.864Z,974.41
2022-09-30T10:09:03.811Z,974.49
2022-09-30T10:10:03.875Z,974.61
2022-09-30T10:11:04.059Z,974.49
2022-09-30T10:12:03.857Z,974.49
2022-09-30T10:13:03.376Z,974.46
2022-09-30T10:14:03.211Z,974.43
2022-09-30T10:15:03.202Z,974.43
2022-09-30T10:16:03.404Z,974.54
2022-09-30T10:17:03.278Z,974.45
2022-09-30T10:18:03.343Z,974.42
2022-09-30T10:19:09.761Z,974.48
2022-09-30T10:20:03.342Z,974.45
2022-09-30T10:21:03.380Z,974.41
2022-09-30T10:22:03.356Z,974.36
2022-09-30T10:23:03.323Z,974.56
2022-09-30T10:24:03.253Z,974.47
2022-09-30T10:25:03.285Z,974.52
2022-09-30T10:26:03.334Z,974.55
2022-09-30T10:28:03.900Z,974.43
2022-09-30T10:29:03.595Z,974.40
2022-09-30T10:30:03.607Z,974.43
2022-09-30T10:31:03.653Z,974.40
2022-09-30T10:32:03.766Z,974.34
2022-09-30T10:33:03.682Z,974.42
2022-09-30T10:34:03.738Z,974.42
2022-09-30T10:35:03.622Z,974.45
2022-09-30T10:36:03.625Z,974.48
2022-09-30T10:37:03.450Z,974.50
2022-09-30T10:38:03.498Z,974.53
2022-09-30T10:39:07.493Z,974.47
2022-09-30T10:40:03.510Z,974.44
2022-09-30T10:41:03.460Z,974.47
2022-09-30T10:42:03.457Z,974.50
2022-09-30T10:43:03.441Z,974.44
2022-09-30T10:44:03.387Z,974.67
2022-09-30T10:45:03.439Z,974.55
2022-09-30T10:46:26.635Z,974.43
2022-09-30T10:47:03.643Z,974.43
2022-09-30T10:48:03.490Z,974.49
2022-09-30T10:49:03.488Z,974.46
2022-09-30T10:50:03.598Z,974.43
2022-09-30T10:51:03.523Z,974.46
2022-09-30T10:52:03.632Z,974.37
2022-09-30T10:53:03.625Z,974.34
2022-09-30T10:54:03.726Z,974.51
2022-09-30T10:55:03.678Z,974.39
2022-09-30T10:56:03.809Z,974.45
2022-09-30T10:57:03.732Z,974.45
2022-09-30T10:58:03.760Z,974.33
2022-09-30T10:59:03.808Z,974.47
2022-09-30T11:00:03.748Z,974.47
2022-09-30T11:01:03.877Z,974.47
2022-09-30T11:02:06.404Z,974.44
2022-09-30T11:03:03.997Z,974.42
2022-09-30T11:04:03.768Z,974.50
2022-09-30T11:05:03.691Z,974.41
2022-09-30T11:06:03.838Z,974.33
2022-09-30T11:07:03.950Z,974.53
2022-09-30T11:08:02.997Z,974.47
2022-09-30T11:09:03.064Z,974.44
2022-09-30T11:10:03.140Z,974.56
2022-09-30T11:11:09.540Z,974.50
2022-09-30T11:12:03.201Z,974.50
2022-09-30T11:13:03.162Z,974.41
2022-09-30T11:14:03.172Z,974.38
2022-09-30T11:15:03.241Z,974.41
2022-09-30T11:16:03.518Z,974.41
2022-09-30T11:17:03.293Z,974.33
2022-09-30T11:18:03.265Z,974.47
2022-09-30T11:19:03.241Z,974.49
2022-09-30T11:20:03.244Z,974.52
2022-09-30T11:21:03.240Z,974.58
2022-09-30T11:22:03.207Z,974.49
2022-09-30T11:23:03.166Z,974.55
2022-09-30T11:24:03.208Z,974.58
2022-09-30T11:25:11.108Z,974.58
2022-09-30T11:26:03.148Z,974.56
2022-09-30T11:27:03.047Z,974.67
2022-09-30T11:28:03.245Z,974.61
2022-09-30T11:29:03.138Z,974.73
2022-09-30T11:30:03.297Z,974.61
2022-09-30T11:31:07.498Z,974.50
2022-09-30T11:32:03.511Z,974.59
2022-09-30T11:33:03.271Z,974.64
2022-09-30T11:34:03.244Z,974.58
2022-09-30T11:35:03.258Z,974.53
2022-09-30T11:36:03.310Z,974.53
2022-09-30T11:37:03.359Z,974.50
2022-09-30T11:38:03.398Z,974.49
2022-09-30T11:39:03.361Z,974.55
2022-09-30T11:40:03.374Z,974.55
2022-09-30T11:41:03.345Z,974.55
2022-09-30T11:42:03.325Z,974.46
2022-09-30T11:43:08.507Z,974.46
2022-09-30T11:44:03.251Z,974.58
2022-09-30T11:45:03.386Z,974.55
2022-09-30T11:46:03.456Z,974.58
2022-09-30T11:47:03.523Z,974.61
2022-09-30T11:48:03.474Z,974.55
2022-09-30T11:49:03.564Z,974.52
2022-09-30T11:50:03.571Z,974.43
2022-09-30T11:51:03.640Z,974.52
2022-09-30T11:52:03.721Z,974.43
2022-09-30T11:53:03.783Z,974.46
2022-09-30T11:54:03.814Z,974.51
2022-09-30T11:55:03.882Z,974.43
2022-09-30T11:56:03.846Z,974.42
2022-09-30T11:57:03.655Z,974.51
2022-09-30T11:58:40.257Z,974.36
2022-09-30T11:59:03.880Z,974.51
2022-09-30T12:00:03.799Z,974.59
2022-09-30T12:01:03.850Z,974.65
2022-09-30T12:02:04.023Z,974.50
2022-09-30T12:03:10.315Z,974.42
2022-09-30T12:04:02.973Z,974.53
2022-09-30T12:05:03.879Z,974.53
2022-09-30T12:06:02.944Z,974.56
2022-09-30T12:07:04.113Z,974.62
2022-09-30T12:08:03.011Z,974.53
2022-09-30T12:09:03.056Z,974.50
2022-09-30T12:10:03.057Z,974.56
2022-09-30T12:11:03.083Z,974.56
2022-09-30T12:12:03.060Z,974.47
2022-09-30T12:13:03.083Z,974.58
2022-09-30T12:14:03.291Z,974.61
2022-09-30T12:15:03.181Z,974.73
2022-09-30T12:16:03.337Z,974.64
2022-09-30T12:17:03.515Z,974.76
2022-09-30T12:18:03.290Z,974.70
2022-09-30T12:19:03.284Z,974.61
2022-09-30T12:20:03.310Z,974.67
2022-09-30T12:21:03.414Z,974.61
2022-09-30T12:22:03.513Z,974.61
2022-09-30T12:23:03.607Z,974.52
2022-09-30T12:24:03.539Z,974.52
2022-09-30T12:25:03.665Z,974.55
2022-09-30T12:26:03.654Z,974.66
2022-09-30T12:27:03.713Z,974.60
2022-09-30T12:28:03.824Z,974.51
2022-09-30T12:29:04.254Z,974.57